createdAt,value
2023-05-06T00:00:08.112Z,3.70
2023-05-06T00:01:08.097Z,4.20
2023-05-06T00:02:08.088Z,4.10
2023-05-06T00:03:08.138Z,3.90
2023-05-06T00:04:09.058Z,3.80
2023-05-06T00:05:09.288Z,4.20
2023-05-06T00:06:08.001Z,3.80
2023-05-06T00:07:08.058Z,3.70
2023-05-06T00:08:08.018Z,3.80
2023-05-06T00:09:08.013Z,3.60
2023-05-06T00:10:07.992Z,3.40
2023-05-06T00:11:07.999Z,3.80
2023-05-06T00:12:07.989Z,3.90
2023-05-06T00:13:08.006Z,3.90
2023-05-06T00:14:07.912Z,3.90
2023-05-06T00:15:08.532Z,3.90
2023-05-06T00:16:07.939Z,3.40
2023-05-06T00:17:07.903Z,3.70
2023-05-06T00:18:07.924Z,3.90
2023-05-06T00:19:07.865Z,3.70
2023-05-06T00:20:08.624Z,3.90
2023-05-06T00:21:08.601Z,3.80
2023-05-06T00:22:08.125Z,4.20
2023-05-06T00:23:07.900Z,3.50
2023-05-06T00:24:07.802Z,3.90
2023-05-06T00:25:07.974Z,3.70
2023-05-06T00:26:08.688Z,3.50
2023-05-06T00:27:08.532Z,4.40
2023-05-06T00:28:07.729Z,3.80
2023-05-06T00:29:07.733Z,4.20
2023-05-06T00:30:07.717Z,4.60
2023-05-06T00:31:07.714Z,3.70
2023-05-06T00:32:07.795Z,3.90
2023-05-06T00:33:07.805Z,3.90
2023-05-06T00:34:07.639Z,3.90
2023-05-06T00:35:08.068Z,3.80
2023-05-06T00:36:08.503Z,4.10
2023-05-06T00:37:08.019Z,4.00
2023-05-06T00:38:07.609Z,4.40
2023-05-06T00:39:07.640Z,4.10
2023-05-06T00:40:07.656Z,4.40
2023-05-06T00:41:07.578Z,3.90
2023-05-06T00:42:08.505Z,3.80
2023-05-06T00:43:07.580Z,3.90
2023-05-06T00:44:07.561Z,3.60
2023-05-06T00:45:07.710Z,3.80
2023-05-06T00:46:07.543Z,3.90
2023-05-06T00:47:07.473Z,3.40
2023-05-06T00:48:07.622Z,3.80
2023-05-06T00:49:07.539Z,4.00
2023-05-06T00:50:07.437Z,4.00
2023-05-06T00:51:07.493Z,3.60
2023-05-06T00:52:07.584Z,3.50
2023-05-06T00:53:07.448Z,3.40
2023-05-06T00:54:07.411Z,3.40
2023-05-06T00:55:07.460Z,3.50
2023-05-06T00:56:07.361Z,3.00
2023-05-06T00:57:07.369Z,3.70
2023-05-06T00:58:07.356Z,3.20
2023-05-06T00:59:07.330Z,2.90
2023-05-06T01:00:07.318Z,3.10
2023-05-06T01:01:07.294Z,3.80
2023-05-06T01:02:07.292Z,3.30
2023-05-06T01:03:07.367Z,3.60
2023-05-06T01:04:07.305Z,3.60
2023-05-06T01:05:07.561Z,2.90
2023-05-06T01:06:07.234Z,3.10
2023-05-06T01:07:07.252Z,3.30
2023-05-06T01:08:07.217Z,3.50
2023-05-06T01:09:07.199Z,3.30
2023-05-06T01:10:07.213Z,3.50
2023-05-06T01:11:07.162Z,3.60
2023-05-06T01:12:07.195Z,3.40
2023-05-06T01:13:07.189Z,3.00
2023-05-06T01:14:07.145Z,4.30
2023-05-06T01:15:07.140Z,4.20
2023-05-06T01:16:07.101Z,3.70
2023-05-06T01:17:07.154Z,3.80
2023-05-06T01:18:07.102Z,3.80
2023-05-06T01:19:07.070Z,3.80
2023-05-06T01:20:07.057Z,3.20
2023-05-06T01:21:07.188Z,3.50
2023-05-06T01:22:07.509Z,3.20
2023-05-06T01:23:07.015Z,4.00
2023-05-06T01:24:06.987Z,2.90
2023-05-06T01:25:07.097Z,3.80
2023-05-06T01:26:07.010Z,3.20
2023-05-06T01:27:06.970Z,3.00
2023-05-06T01:28:06.950Z,3.00
2023-05-06T01:29:06.930Z,3.40
2023-05-06T01:30:06.934Z,3.10
2023-05-06T01:31:06.987Z,2.90
2023-05-06T01:32:06.910Z,3.10
2023-05-06T01:33:06.882Z,3.30
2023-05-06T01:34:06.862Z,3.20
2023-05-06T01:35:06.984Z,3.70
2023-05-06T01:36:06.880Z,3.50
2023-05-06T01:37:13.653Z,3.50
2023-05-06T01:38:06.895Z,3.30
2023-05-06T01:39:06.831Z,3.60
2023-05-06T01:40:06.842Z,3.80
2023-05-06T01:41:06.796Z,3.60
2023-05-06T01:42:06.763Z,4.20
2023-05-06T01:43:06.772Z,3.20
2023-05-06T01:44:06.747Z,3.20
2023-05-06T01:45:06.901Z,3.70
2023-05-06T01:46:06.773Z,2.70
2023-05-06T01:47:06.690Z,2.90
2023-05-06T01:48:06.747Z,3.00
2023-05-06T01:49:06.751Z,3.00
2023-05-06T01:50:06.709Z,3.30
2023-05-06T01:51:06.633Z,3.10
2023-05-06T01:52:06.653Z,3.30
2023-05-06T01:53:06.627Z,3.50
2023-05-06T01:54:06.678Z,2.90
2023-05-06T01:55:06.673Z,3.10
2023-05-06T01:56:06.595Z,3.40
2023-05-06T01:57:06.592Z,3.10
2023-05-06T01:58:06.589Z,4.00
2023-05-06T01:59:06.576Z,2.90
2023-05-06T02:00:06.525Z,3.60
2023-05-06T02:01:06.541Z,3.10
2023-05-06T02:02:06.563Z,3.20
2023-05-06T02:03:06.629Z,3.50
2023-05-06T02:04:06.533Z,3.30
2023-05-06T02:05:06.463Z,3.50
2023-05-06T02:06:06.444Z,2.90
2023-05-06T02:07:06.452Z,3.90
2023-05-06T02:08:06.456Z,3.50
2023-05-06T02:09:06.774Z,3.90
2023-05-06T02:10:06.400Z,3.70
2023-05-06T02:11:06.418Z,3.30
2023-05-06T02:12:06.401Z,3.90
2023-05-06T02:13:06.426Z,3.10
2023-05-06T02:14:06.369Z,3.30
2023-05-06T02:15:06.353Z,3.90
2023-05-06T02:16:06.353Z,3.60
2023-05-06T02:17:06.364Z,3.30
2023-05-06T02:18:06.284Z,3.80
2023-05-06T02:19:06.311Z,3.00
2023-05-06T02:20:06.266Z,4.10
2023-05-06T02:21:06.254Z,3.90
2023-05-06T02:22:06.264Z,3.20
2023-05-06T02:23:06.250Z,3.60
2023-05-06T02:24:06.238Z,3.40
2023-05-06T02:25:06.222Z,3.60
2023-05-06T02:26:06.225Z,4.00
2023-05-06T02:27:06.226Z,3.70
2023-05-06T02:28:06.182Z,4.30
2023-05-06T02:29:06.160Z,4.20
2023-05-06T02:30:06.138Z,3.60
2023-05-06T02:31:06.270Z,3.90
2023-05-06T02:32:06.123Z,3.10
2023-05-06T02:33:06.178Z,3.90
2023-05-06T02:34:06.088Z,3.60
2023-05-06T02:35:06.083Z,4.00
2023-05-06T02:36:06.127Z,3.80
2023-05-06T02:37:06.050Z,3.50
2023-05-06T02:38:06.183Z,3.60
2023-05-06T02:39:06.169Z,3.80
2023-05-06T02:40:06.164Z,3.70
2023-05-06T02:41:06.025Z,4.00
2023-05-06T02:42:05.999Z,3.70
2023-05-06T02:43:05.973Z,4.50
2023-05-06T02:44:05.969Z,3.90
2023-05-06T02:45:05.975Z,3.60
2023-05-06T02:46:06.027Z,3.80
2023-05-06T02:47:05.946Z,3.30
2023-05-06T02:48:05.998Z,3.70
2023-05-06T02:49:05.915Z,3.50
2023-05-06T02:50:05.894Z,3.30
2023-05-06T02:51:05.864Z,3.70
2023-05-06T02:52:05.910Z,3.50
2023-05-06T02:53:05.852Z,3.50
2023-05-06T02:54:06.266Z,3.10
2023-05-06T02:55:05.858Z,4.10
2023-05-06T02:56:05.882Z,3.90
2023-05-06T02:57:05.789Z,3.60
2023-05-06T02:58:05.769Z,3.40
2023-05-06T02:59:05.797Z,3.80
2023-05-06T03:00:05.739Z,3.00
2023-05-06T03:01:05.774Z,3.40
2023-05-06T03:02:05.727Z,3.80
2023-05-06T03:03:05.746Z,3.40
2023-05-06T03:04:05.762Z,3.10
2023-05-06T03:05:05.680Z,3.40
2023-05-06T03:06:05.667Z,3.40
2023-05-06T03:07:05.646Z,3.40
2023-05-06T03:08:05.662Z,3.40
2023-05-06T03:09:05.656Z,3.60
2023-05-06T03:10:05.649Z,3.60
2023-05-06T03:11:07.400Z,3.20
2023-05-06T03:12:05.630Z,3.70
2023-05-06T03:13:05.573Z,3.00
2023-05-06T03:14:05.556Z,3.40
2023-05-06T03:15:05.548Z,3.00
2023-05-06T03:16:05.588Z,3.70
2023-05-06T03:17:05.490Z,2.70
2023-05-06T03:18:05.511Z,2.70
2023-05-06T03:19:05.449Z,2.90
2023-05-06T03:20:05.411Z,3.10
2023-05-06T03:21:05.466Z,3.10
2023-05-06T03:22:05.429Z,3.10
2023-05-06T03:23:05.449Z,3.40
2023-05-06T03:24:05.378Z,3.70
2023-05-06T03:25:05.361Z,2.70
2023-05-06T03:26:05.918Z,2.80
2023-05-06T03:27:05.377Z,3.60
2023-05-06T03:28:05.310Z,3.30
2023-05-06T03:29:05.316Z,3.30
2023-05-06T03:30:05.299Z,3.10
2023-05-06T03:31:05.340Z,3.40
2023-05-06T03:32:05.290Z,3.00
2023-05-06T03:33:05.300Z,2.90
2023-05-06T03:34:05.282Z,3.00
2023-05-06T03:35:05.353Z,3.80
2023-05-06T03:36:05.344Z,3.50
2023-05-06T03:37:05.239Z,3.00
2023-05-06T03:38:05.206Z,3.80
2023-05-06T03:39:05.196Z,3.50
2023-05-06T03:40:05.992Z,3.20
2023-05-06T03:41:05.220Z,3.60
2023-05-06T03:42:07.090Z,3.30
2023-05-06T03:43:05.142Z,3.40
2023-05-06T03:44:05.103Z,4.40
2023-05-06T03:45:05.172Z,3.40
2023-05-06T03:46:05.129Z,3.80
2023-05-06T03:47:05.079Z,4.10
2023-05-06T03:48:05.119Z,3.40
2023-05-06T03:49:05.052Z,3.20
2023-05-06T03:50:05.053Z,3.80
2023-05-06T03:51:05.056Z,3.50
2023-05-06T03:52:05.030Z,3.30
2023-05-06T03:53:05.023Z,3.50
2023-05-06T03:54:04.980Z,3.50
2023-05-06T03:55:05.027Z,3.60
2023-05-06T03:56:05.018Z,3.80
2023-05-06T03:57:04.952Z,3.00
2023-05-06T03:58:04.924Z,3.60
2023-05-06T03:59:04.939Z,3.20
2023-05-06T04:00:04.950Z,3.70
2023-05-06T04:01:04.953Z,2.90
2023-05-06T04:02:04.901Z,3.60
2023-05-06T04:03:05.020Z,3.60
2023-05-06T04:04:04.979Z,3.20
2023-05-06T04:05:04.883Z,3.10
2023-05-06T04:06:04.841Z,3.40
2023-05-06T04:07:04.805Z,4.10
2023-05-06T04:08:04.802Z,3.70
2023-05-06T04:09:04.889Z,3.20
2023-05-06T04:10:05.031Z,3.30
2023-05-06T04:11:04.806Z,3.50
2023-05-06T04:12:05.712Z,3.00
2023-05-06T04:13:05.057Z,3.50
2023-05-06T04:14:04.749Z,4.00
2023-05-06T04:15:04.700Z,3.50
2023-05-06T04:16:04.732Z,3.70
2023-05-06T04:17:04.702Z,3.40
2023-05-06T04:18:04.751Z,3.40
2023-05-06T04:19:06.369Z,3.50
2023-05-06T04:20:04.648Z,3.70
2023-05-06T04:21:04.787Z,2.80
2023-05-06T04:22:04.611Z,3.30
2023-05-06T04:23:04.642Z,3.70
2023-05-06T04:24:04.580Z,3.50
2023-05-06T04:25:04.777Z,3.60
2023-05-06T04:26:04.569Z,3.70
2023-05-06T04:27:04.756Z,3.00
2023-05-06T04:28:04.568Z,3.20
2023-05-06T04:29:04.660Z,3.50
2023-05-06T04:30:04.516Z,3.00
2023-05-06T04:31:04.666Z,2.50
2023-05-06T04:32:04.623Z,3.00
2023-05-06T04:33:04.515Z,2.60
2023-05-06T04:34:04.459Z,3.10
2023-05-06T04:35:04.596Z,4.10
2023-05-06T04:36:04.705Z,3.20
2023-05-06T04:37:04.489Z,7.00
2023-05-06T04:38:04.501Z,6.30
2023-05-06T04:39:04.576Z,8.70
2023-05-06T04:40:04.395Z,6.80
2023-05-06T04:41:04.411Z,6.10
2023-05-06T04:42:04.540Z,8.00
2023-05-06T04:43:04.346Z,7.90
2023-05-06T04:44:04.330Z,6.90
2023-05-06T04:45:04.348Z,6.30
2023-05-06T04:46:04.337Z,4.50
2023-05-06T04:47:04.306Z,3.80
2023-05-06T04:48:04.296Z,3.70
2023-05-06T04:49:04.478Z,3.70
2023-05-06T04:50:04.292Z,4.00
2023-05-06T04:51:04.266Z,4.90
2023-05-06T04:52:04.225Z,4.90
2023-05-06T04:53:04.426Z,18.10
2023-05-06T04:54:04.239Z,9.20
2023-05-06T04:55:04.544Z,16.30
2023-05-06T04:56:04.282Z,14.00
2023-05-06T04:57:04.288Z,7.30
2023-05-06T04:58:07.279Z,3.90
2023-05-06T04:59:04.187Z,3.70
2023-05-06T05:00:04.360Z,4.10
2023-05-06T05:01:04.313Z,3.00
2023-05-06T05:02:04.150Z,3.30
2023-05-06T05:03:04.334Z,3.90
2023-05-06T05:04:04.292Z,2.90
2023-05-06T05:05:04.103Z,3.50
2023-05-06T05:06:04.071Z,3.10
2023-05-06T05:07:04.048Z,3.70
2023-05-06T05:08:04.241Z,3.40
2023-05-06T05:09:04.059Z,3.70
2023-05-06T05:10:04.111Z,3.20
2023-05-06T05:11:04.232Z,3.50
2023-05-06T05:12:04.188Z,3.40
2023-05-06T05:13:03.997Z,3.40
2023-05-06T05:14:04.002Z,3.10
2023-05-06T05:15:04.039Z,3.90
2023-05-06T05:16:04.027Z,3.60
2023-05-06T05:17:03.962Z,4.10
2023-05-06T05:18:03.943Z,3.50
2023-05-06T05:19:04.895Z,4.10
2023-05-06T05:20:03.919Z,4.20
2023-05-06T05:21:03.915Z,4.00
2023-05-06T05:22:03.964Z,3.20
2023-05-06T05:23:03.909Z,3.90
2023-05-06T05:24:03.851Z,4.30
2023-05-06T05:25:05.525Z,3.80
2023-05-06T05:26:03.850Z,3.70
2023-05-06T05:27:04.810Z,3.90
2023-05-06T05:28:03.836Z,3.40
2023-05-06T05:29:08.248Z,3.20
2023-05-06T05:30:03.908Z,2.90
2023-05-06T05:31:04.707Z,3.00
2023-05-06T05:32:03.717Z,3.10
2023-05-06T05:33:03.816Z,2.70
2023-05-06T05:34:03.751Z,3.90
2023-05-06T05:35:03.730Z,2.80
2023-05-06T05:36:03.737Z,3.00
2023-05-06T05:37:03.675Z,2.60
2023-05-06T05:38:03.817Z,2.80
2023-05-06T05:39:03.633Z,3.00
2023-05-06T05:40:03.659Z,2.50
2023-05-06T05:41:03.623Z,3.20
2023-05-06T05:42:03.606Z,2.60
2023-05-06T05:43:03.641Z,2.70
2023-05-06T05:44:04.365Z,2.50
2023-05-06T05:45:03.544Z,2.80
2023-05-06T05:46:03.576Z,2.90
2023-05-06T05:47:03.580Z,3.90
2023-05-06T05:48:03.553Z,3.50
2023-05-06T05:49:03.586Z,3.00
2023-05-06T05:50:03.589Z,3.30
2023-05-06T05:51:03.514Z,3.40
2023-05-06T05:52:03.477Z,3.50
2023-05-06T05:53:03.468Z,3.80
2023-05-06T05:54:03.460Z,4.30
2023-05-06T05:55:03.440Z,3.60
2023-05-06T05:56:04.284Z,3.90
2023-05-06T05:57:03.399Z,3.30
2023-05-06T05:58:03.455Z,3.80
2023-05-06T05:59:03.377Z,4.30
2023-05-06T06:00:03.360Z,4.30
2023-05-06T06:01:03.375Z,4.50
2023-05-06T06:02:03.322Z,4.00
2023-05-06T06:03:03.455Z,4.30
2023-05-06T06:04:03.891Z,4.00
2023-05-06T06:05:03.331Z,4.30
2023-05-06T06:06:03.301Z,3.90
2023-05-06T06:07:03.315Z,4.40
2023-05-06T06:08:04.037Z,3.60
2023-05-06T06:09:03.241Z,4.10
2023-05-06T06:10:03.996Z,4.20
2023-05-06T06:11:03.308Z,3.90
2023-05-06T06:12:03.199Z,3.70
2023-05-06T06:13:03.336Z,4.20
2023-05-06T06:14:03.327Z,3.70
2023-05-06T06:15:03.306Z,4.00
2023-05-06T06:16:03.215Z,3.90
2023-05-06T06:17:03.137Z,3.60
2023-05-06T06:18:03.233Z,3.90
2023-05-06T06:19:03.230Z,4.20
2023-05-06T06:20:03.113Z,3.90
2023-05-06T06:21:03.130Z,4.20
2023-05-06T06:22:03.072Z,3.70
2023-05-06T06:23:03.062Z,4.10
2023-05-06T06:24:03.254Z,3.70
2023-05-06T06:25:03.018Z,3.40
2023-05-06T06:26:03.016Z,3.20
2023-05-06T06:27:03.133Z,3.30
2023-05-06T06:28:03.012Z,3.70
2023-05-06T06:29:02.994Z,3.20
2023-05-06T06:30:03.102Z,2.90
2023-05-06T06:31:02.996Z,3.10
2023-05-06T06:32:03.202Z,3.40
2023-05-06T06:33:03.209Z,3.10
2023-05-06T06:34:02.934Z,3.00
2023-05-06T06:35:02.902Z,3.10
2023-05-06T06:36:02.906Z,3.30
2023-05-06T06:37:02.926Z,3.10
2023-05-06T06:38:02.990Z,3.20
2023-05-06T06:39:02.837Z,2.90
2023-05-06T06:40:02.938Z,3.10
2023-05-06T06:41:02.824Z,3.00
2023-05-06T06:42:03.078Z,2.60
2023-05-06T06:43:03.222Z,2.50
2023-05-06T06:44:02.897Z,2.50
2023-05-06T06:45:04.368Z,3.40
2023-05-06T06:46:03.847Z,3.40
2023-05-06T06:47:02.777Z,2.60
2023-05-06T06:48:02.796Z,2.60
2023-05-06T06:49:02.741Z,2.40
2023-05-06T06:50:02.694Z,2.30
2023-05-06T06:51:02.878Z,2.90
2023-05-06T06:52:02.714Z,2.50
2023-05-06T06:53:04.881Z,3.00
2023-05-06T06:54:02.668Z,2.80
2023-05-06T06:55:02.672Z,2.60
2023-05-06T06:56:02.691Z,3.40
2023-05-06T06:57:02.724Z,2.70
2023-05-06T06:58:02.701Z,3.30
2023-05-06T06:59:02.627Z,2.60
2023-05-06T07:00:02.603Z,2.70
2023-05-06T07:01:02.558Z,2.90
2023-05-06T07:02:02.573Z,2.90
2023-05-06T07:03:02.649Z,2.80
2023-05-06T07:04:02.867Z,2.80
2023-05-06T07:05:02.511Z,2.80
2023-05-06T07:06:02.555Z,2.80
2023-05-06T07:07:02.492Z,2.10
2023-05-06T07:08:02.476Z,2.50
2023-05-06T07:09:02.455Z,2.60
2023-05-06T07:10:02.506Z,2.20
2023-05-06T07:11:02.548Z,2.20
2023-05-06T07:12:02.592Z,2.30
2023-05-06T07:13:02.578Z,2.30
2023-05-06T07:14:02.450Z,2.50
2023-05-06T07:15:02.388Z,2.40
2023-05-06T07:16:06.447Z,2.50
2023-05-06T07:17:02.548Z,2.00
2023-05-06T07:18:02.459Z,2.00
2023-05-06T07:19:02.375Z,2.50
2023-05-06T07:20:02.426Z,2.10
2023-05-06T07:21:02.329Z,2.30
2023-05-06T07:22:02.579Z,2.30
2023-05-06T07:23:02.434Z,2.00
2023-05-06T07:24:02.262Z,2.10
2023-05-06T07:25:02.293Z,2.00
2023-05-06T07:26:02.362Z,2.60
2023-05-06T07:27:02.211Z,2.40
2023-05-06T07:28:02.275Z,2.20
2023-05-06T07:29:02.376Z,2.10
2023-05-06T07:30:02.217Z,2.20
2023-05-06T07:31:02.266Z,1.90
2023-05-06T07:32:02.161Z,2.00
2023-05-06T07:33:02.417Z,2.10
2023-05-06T07:34:03.022Z,2.10
2023-05-06T07:35:02.113Z,2.40
2023-05-06T07:36:02.106Z,2.00
2023-05-06T07:37:02.165Z,2.20
2023-05-06T07:38:05.683Z,1.80
2023-05-06T07:39:03.077Z,1.70
2023-05-06T07:40:02.165Z,1.60
2023-05-06T07:41:02.038Z,2.00
2023-05-06T07:42:02.218Z,1.50
2023-05-06T07:43:03.058Z,2.20
2023-05-06T07:44:02.764Z,2.00
2023-05-06T07:45:01.970Z,1.50
2023-05-06T07:46:02.066Z,1.50
2023-05-06T07:47:02.256Z,1.80
2023-05-06T07:48:02.333Z,1.60
2023-05-06T07:49:02.050Z,1.70
2023-05-06T07:50:02.555Z,2.10
2023-05-06T07:51:02.719Z,2.00
2023-05-06T07:52:02.601Z,2.10
2023-05-06T07:53:02.248Z,1.90
2023-05-06T07:54:01.888Z,1.50
2023-05-06T07:55:01.845Z,1.80
2023-05-06T07:56:04.382Z,1.90
2023-05-06T07:57:01.923Z,1.70
2023-05-06T07:58:02.135Z,1.60
2023-05-06T07:59:01.884Z,2.10
2023-05-06T08:00:02.879Z,2.10
2023-05-06T08:01:01.832Z,1.80
2023-05-06T08:02:02.031Z,2.00
2023-05-06T08:03:02.027Z,1.70
2023-05-06T08:04:01.911Z,2.20
2023-05-06T08:05:01.710Z,1.80
2023-05-06T08:06:01.867Z,2.10
2023-05-06T08:07:01.850Z,1.90
2023-05-06T08:08:01.861Z,2.30
2023-05-06T08:09:01.676Z,1.80
2023-05-06T08:10:01.680Z,1.60
2023-05-06T08:11:02.318Z,2.00
2023-05-06T08:12:01.684Z,2.00
2023-05-06T08:13:01.797Z,1.90
2023-05-06T08:14:01.601Z,1.40
2023-05-06T08:15:02.231Z,2.00
2023-05-06T08:16:01.627Z,1.70
2023-05-06T08:17:01.743Z,1.80
2023-05-06T08:18:10.395Z,1.90
2023-05-06T08:19:02.631Z,1.90
2023-05-06T08:20:01.577Z,2.00
2023-05-06T08:21:01.716Z,2.10
2023-05-06T08:22:01.586Z,1.60
2023-05-06T08:23:01.494Z,1.50
2023-05-06T08:24:01.686Z,1.90
2023-05-06T08:25:01.534Z,2.00
2023-05-06T08:26:01.609Z,1.90
2023-05-06T08:27:01.451Z,1.50
2023-05-06T08:28:01.602Z,1.60
2023-05-06T08:29:01.414Z,1.80
2023-05-06T08:30:02.044Z,1.80
2023-05-06T08:31:01.390Z,2.30
2023-05-06T08:32:01.692Z,2.00
2023-05-06T08:33:01.507Z,2.00
2023-05-06T08:34:01.572Z,1.60
2023-05-06T08:35:01.841Z,1.60
2023-05-06T08:36:01.616Z,1.70
2023-05-06T08:37:01.336Z,1.60
2023-05-06T08:38:02.119Z,1.80
2023-05-06T08:39:01.310Z,1.60
2023-05-06T08:40:01.399Z,1.50
2023-05-06T08:41:01.282Z,1.40
2023-05-06T08:42:01.376Z,1.80
2023-05-06T08:43:01.236Z,2.00
2023-05-06T08:44:01.506Z,1.80
2023-05-06T08:45:01.210Z,1.50
2023-05-06T08:46:01.448Z,1.50
2023-05-06T08:47:01.190Z,1.80
2023-05-06T08:48:01.332Z,1.20
2023-05-06T08:49:01.484Z,1.60
2023-05-06T08:50:01.147Z,1.30
2023-05-06T08:51:01.192Z,1.40
2023-05-06T08:52:01.134Z,1.60
2023-05-06T08:53:01.128Z,1.50
2023-05-06T08:54:01.120Z,1.40
2023-05-06T08:55:01.429Z,1.10
2023-05-06T08:56:01.077Z,1.20
2023-05-06T08:57:01.241Z,1.00
2023-05-06T08:58:01.084Z,1.30
2023-05-06T08:59:01.159Z,1.60
2023-05-06T09:00:01.130Z,1.60
2023-05-06T09:01:01.128Z,1.60
2023-05-06T09:02:01.034Z,1.20
2023-05-06T09:03:01.072Z,1.40
2023-05-06T09:04:00.970Z,1.40
2023-05-06T09:05:00.978Z,1.40
2023-05-06T09:06:00.969Z,1.50
2023-05-06T09:07:00.999Z,1.50
2023-05-06T09:08:00.951Z,1.20
2023-05-06T09:09:01.106Z,1.40
2023-05-06T09:10:00.890Z,1.40
2023-05-06T09:11:01.060Z,1.10
2023-05-06T09:12:00.894Z,1.30
2023-05-06T09:13:00.944Z,1.30
2023-05-06T09:14:00.876Z,1.10
2023-05-06T09:15:00.825Z,1.40
2023-05-06T09:16:00.818Z,1.20
2023-05-06T09:17:00.878Z,1.40
2023-05-06T09:18:01.048Z,0.80
2023-05-06T09:19:01.635Z,1.20
2023-05-06T09:20:00.834Z,1.10
2023-05-06T09:21:01.130Z,1.00
2023-05-06T09:22:00.879Z,1.20
2023-05-06T09:23:00.744Z,1.10
2023-05-06T09:24:00.904Z,1.20
2023-05-06T09:25:00.784Z,1.20
2023-05-06T09:26:00.888Z,1.40
2023-05-06T09:27:00.690Z,1.30
2023-05-06T09:28:00.805Z,1.30
2023-05-06T09:29:00.659Z,1.90
2023-05-06T09:30:01.482Z,1.20
2023-05-06T09:31:00.731Z,1.20
2023-05-06T09:32:00.806Z,1.20
2023-05-06T09:33:00.800Z,1.10
2023-05-06T09:34:00.579Z,1.10
2023-05-06T09:35:00.777Z,1.40
2023-05-06T09:36:00.626Z,1.10
2023-05-06T09:37:00.560Z,1.50
2023-05-06T09:38:00.575Z,1.10
2023-05-06T09:39:00.678Z,1.60
2023-05-06T09:40:00.591Z,1.00
2023-05-06T09:41:00.661Z,1.50
2023-05-06T09:42:00.530Z,1.10
2023-05-06T09:43:00.513Z,1.20
2023-05-06T09:44:00.571Z,1.00
2023-05-06T09:45:01.914Z,1.00
2023-05-06T09:46:01.048Z,0.90
2023-05-06T09:47:00.589Z,1.00
2023-05-06T09:48:00.428Z,0.80
2023-05-06T09:49:00.505Z,1.30
2023-05-06T09:50:00.549Z,1.00
2023-05-06T09:51:01.354Z,1.20
2023-05-06T09:52:00.423Z,0.90
2023-05-06T09:53:00.333Z,1.00
2023-05-06T09:54:00.567Z,1.10
2023-05-06T09:55:00.450Z,1.40
2023-05-06T09:56:00.290Z,1.00
2023-05-06T09:57:01.143Z,0.90
2023-05-06T09:58:00.351Z,0.80
2023-05-06T09:59:00.281Z,1.00
2023-05-06T10:00:00.482Z,1.00
2023-05-06T10:01:00.236Z,1.00
2023-05-06T10:02:00.316Z,1.00
2023-05-06T10:03:00.608Z,0.90
2023-05-06T10:04:00.378Z,1.30
2023-05-06T10:05:00.523Z,1.20
2023-05-06T10:06:00.277Z,1.20
2023-05-06T10:07:00.226Z,1.10
2023-05-06T10:08:00.648Z,0.80
2023-05-06T10:09:00.171Z,0.90
2023-05-06T10:10:00.156Z,1.00
2023-05-06T10:11:00.180Z,1.10
2023-05-06T10:12:00.085Z,1.00
2023-05-06T10:13:01.072Z,0.90
2023-05-06T10:14:00.149Z,0.90
2023-05-06T10:15:00.035Z,1.00
2023-05-06T10:16:00.149Z,1.00
2023-05-06T10:17:00.041Z,1.30
2023-05-06T10:18:00.086Z,1.00
2023-05-06T10:19:00.001Z,1.10
2023-05-06T10:19:59.979Z,1.10
2023-05-06T10:21:00.748Z,0.80
2023-05-06T10:21:59.977Z,1.00
2023-05-06T10:23:00.059Z,1.30
2023-05-06T10:23:59.949Z,1.10
2023-05-06T10:25:00.015Z,1.00
2023-05-06T10:25:59.936Z,1.20
2023-05-06T10:26:59.917Z,1.00
2023-05-06T10:27:59.951Z,1.50
2023-05-06T10:28:59.991Z,1.10
2023-05-06T10:29:59.919Z,0.90
2023-05-06T10:30:59.866Z,1.10
2023-05-06T10:31:59.926Z,1.40
2023-05-06T10:32:59.983Z,1.10
2023-05-06T10:33:59.852Z,1.10
2023-05-06T10:34:59.773Z,1.10
2023-05-06T10:35:59.816Z,1.10
2023-05-06T10:36:59.756Z,1.10
2023-05-06T10:37:59.730Z,1.10
2023-05-06T10:38:59.759Z,2.00
2023-05-06T10:39:59.702Z,1.40
2023-05-06T10:40:59.978Z,0.90
2023-05-06T10:41:59.670Z,1.30
2023-05-06T10:42:59.673Z,0.90
2023-05-06T10:43:59.651Z,0.90
2023-05-06T10:44:59.673Z,0.80
2023-05-06T10:45:59.707Z,1.00
2023-05-06T10:46:59.695Z,1.00
2023-05-06T10:47:59.612Z,1.00
2023-05-06T10:48:59.586Z,0.90
2023-05-06T10:49:59.680Z,1.10
2023-05-06T10:50:59.555Z,1.40
2023-05-06T10:51:59.676Z,1.10
2023-05-06T10:52:59.547Z,1.40
2023-05-06T10:54:00.111Z,1.30
2023-05-06T10:54:59.532Z,1.30
2023-05-06T10:55:59.556Z,1.20
2023-05-06T10:56:59.472Z,1.10
2023-05-06T10:57:59.604Z,1.20
2023-05-06T10:58:59.518Z,1.10
2023-05-06T10:59:59.458Z,1.60
2023-05-06T11:00:59.514Z,1.20
2023-05-06T11:01:59.442Z,1.30
2023-05-06T11:02:59.515Z,1.20
2023-05-06T11:03:59.418Z,1.30
2023-05-06T11:05:00.343Z,1.30
2023-05-06T11:05:59.354Z,1.40
2023-05-06T11:06:59.457Z,1.40
2023-05-06T11:07:59.327Z,1.10
2023-05-06T11:08:59.400Z,1.10
2023-05-06T11:09:59.315Z,1.20
2023-05-06T11:10:59.324Z,1.30
2023-05-06T11:11:59.412Z,1.10
2023-05-06T11:12:59.453Z,0.90
2023-05-06T11:14:00.188Z,1.40
2023-05-06T11:14:59.984Z,1.20
2023-05-06T11:15:59.392Z,1.50
2023-05-06T11:16:59.383Z,1.00
2023-05-06T11:17:59.426Z,1.20
2023-05-06T11:18:59.192Z,1.20
2023-05-06T11:19:59.174Z,1.20
2023-05-06T11:20:59.213Z,1.10
2023-05-06T11:21:59.147Z,1.20
2023-05-06T11:22:59.263Z,1.00
2023-05-06T11:23:59.322Z,1.20
2023-05-06T11:24:59.272Z,1.10
2023-05-06T11:26:03.168Z,1.50
2023-05-06T11:26:59.142Z,1.40
2023-05-06T11:27:59.251Z,1.50
2023-05-06T11:28:59.054Z,1.40
2023-05-06T11:29:59.072Z,1.20
2023-05-06T11:30:59.219Z,1.40
2023-05-06T11:31:59.125Z,1.40
2023-05-06T11:32:59.157Z,1.40
2023-05-06T11:33:58.982Z,1.40
2023-05-06T11:34:59.512Z,1.00
2023-05-06T11:35:59.235Z,1.40
2023-05-06T11:36:59.099Z,1.10
2023-05-06T11:37:59.067Z,1.50
2023-05-06T11:38:58.939Z,1.20
2023-05-06T11:39:59.204Z,1.10
2023-05-06T11:40:59.565Z,1.10
2023-05-06T11:41:59.038Z,1.80
2023-05-06T11:42:58.986Z,1.10
2023-05-06T11:43:58.934Z,1.10
2023-05-06T11:44:58.923Z,0.90
2023-05-06T11:45:58.933Z,0.90
2023-05-06T11:46:58.982Z,0.90
2023-05-06T11:47:58.820Z,1.00
2023-05-06T11:48:58.920Z,1.00
2023-05-06T11:49:58.974Z,0.90
2023-05-06T11:50:58.791Z,1.10
2023-05-06T11:51:58.848Z,1.00
2023-05-06T11:52:59.574Z,0.80
2023-05-06T11:53:58.727Z,0.90
2023-05-06T11:54:58.758Z,1.00
2023-05-06T11:55:58.871Z,0.80
2023-05-06T11:56:58.702Z,1.20
2023-05-06T11:57:58.792Z,1.10
2023-05-06T11:58:58.667Z,1.00
2023-05-06T11:59:58.833Z,0.70
2023-05-06T12:00:58.646Z,1.10
2023-05-06T12:01:58.614Z,1.00
2023-05-06T12:02:58.680Z,1.10
2023-05-06T12:03:58.755Z,1.00
2023-05-06T12:04:58.874Z,0.90
2023-05-06T12:05:58.565Z,0.90
2023-05-06T12:06:58.729Z,1.10
2023-05-06T12:07:58.627Z,1.00
2023-05-06T12:08:58.776Z,0.90
2023-05-06T12:09:58.546Z,0.80
2023-05-06T12:10:58.552Z,1.00
2023-05-06T12:11:58.500Z,0.90
2023-05-06T12:12:58.509Z,1.00
2023-05-06T12:13:58.495Z,1.00
2023-05-06T12:14:58.525Z,0.80
2023-05-06T12:15:58.641Z,1.00
2023-05-06T12:16:58.433Z,0.80
2023-05-06T12:17:58.478Z,1.00
2023-05-06T12:18:58.487Z,0.90
2023-05-06T12:19:58.463Z,0.90
2023-05-06T12:20:58.467Z,1.00
2023-05-06T12:21:58.424Z,0.90
2023-05-06T12:22:58.455Z,1.20
2023-05-06T12:23:58.447Z,1.30
2023-05-06T12:24:58.414Z,0.80
2023-05-06T12:25:58.306Z,1.00
2023-05-06T12:26:58.476Z,1.00
2023-05-06T12:27:58.323Z,1.00
2023-05-06T12:28:58.402Z,1.20
2023-05-06T12:29:58.253Z,1.40
2023-05-06T12:30:58.464Z,1.20
2023-05-06T12:31:58.410Z,1.40
2023-05-06T12:32:58.372Z,1.20
2023-05-06T12:34:00.502Z,1.20
2023-05-06T12:34:58.282Z,1.10
2023-05-06T12:35:58.693Z,1.10
2023-05-06T12:36:58.210Z,1.10
2023-05-06T12:37:58.199Z,1.20
2023-05-06T12:38:58.291Z,1.10
2023-05-06T12:39:59.455Z,1.30
2023-05-06T12:40:58.878Z,1.20
2023-05-06T12:41:58.855Z,1.40
2023-05-06T12:42:58.097Z,1.00
2023-05-06T12:43:58.081Z,0.90
2023-05-06T12:44:58.087Z,1.00
2023-05-06T12:45:58.195Z,1.30
2023-05-06T12:46:59.009Z,1.40
2023-05-06T12:47:58.082Z,1.20
2023-05-06T12:48:58.045Z,1.20
2023-05-06T12:49:58.358Z,0.90
2023-05-06T12:50:58.065Z,1.20
2023-05-06T12:51:58.004Z,0.80
2023-05-06T12:52:57.982Z,0.90
2023-05-06T12:53:57.998Z,1.20
2023-05-06T12:54:57.983Z,1.10
2023-05-06T12:55:59.004Z,1.20
2023-05-06T12:56:57.951Z,1.30
2023-05-06T12:57:58.070Z,1.10
2023-05-06T12:58:58.100Z,1.30
2023-05-06T12:59:57.895Z,1.00
2023-05-06T13:00:57.977Z,1.00
2023-05-06T13:01:58.081Z,1.20
2023-05-06T13:02:58.074Z,1.10
2023-05-06T13:03:57.946Z,1.20
2023-05-06T13:04:58.083Z,1.00
2023-05-06T13:05:57.988Z,1.00
2023-05-06T13:06:57.786Z,1.00
2023-05-06T13:07:57.784Z,1.00
2023-05-06T13:08:57.867Z,0.90
2023-05-06T13:09:57.874Z,1.20
2023-05-06T13:10:58.019Z,1.30
2023-05-06T13:11:57.726Z,1.10
2023-05-06T13:12:57.831Z,0.80
2023-05-06T13:13:57.702Z,0.90
2023-05-06T13:14:57.732Z,0.70
2023-05-06T13:15:57.796Z,1.10
2023-05-06T13:16:57.691Z,0.90
2023-05-06T13:17:57.720Z,0.80